sensor_id;sensor_type;location;lat;lon;timestamp;temperature;humidity
6752;DHT22;3413;47.680;9.166;2023-09-19T00:03:44;22.00;83.60
6752;DHT22;3413;47.680;9.166;2023-09-19T00:08:47;22.00;83.50
6752;DHT22;3413;47.680;9.166;2023-09-19T00:13:49;22.00;83.30
6752;DHT22;3413;47.680;9.166;2023-09-19T00:18:52;21.90;83.10
6752;DHT22;3413;47.680;9.166;2023-09-19T00:23:54;22.00;83.10
6752;DHT22;3413;47.680;9.166;2023-09-19T00:28:56;22.00;83.20
6752;DHT22;3413;47.680;9.166;2023-09-19T00:33:59;22.00;83.00
6752;DHT22;3413;47.680;9.166;2023-09-19T00:39:06;22.00;82.90
6752;DHT22;3413;47.680;9.166;2023-09-19T00:44:09;22.00;82.80
6752;DHT22;3413;47.680;9.166;2023-09-19T00:49:12;21.90;83.00
6752;DHT22;3413;47.680;9.166;2023-09-19T00:54:16;21.90;83.00
6752;DHT22;3413;47.680;9.166;2023-09-19T00:59:19;22.00;83.10
6752;DHT22;3413;47.680;9.166;2023-09-19T01:04:24;21.90;83.20
6752;DHT22;3413;47.680;9.166;2023-09-19T01:09:26;21.90;83.30
6752;DHT22;3413;47.680;9.166;2023-09-19T01:14:49;21.90;83.10
6752;DHT22;3413;47.680;9.166;2023-09-19T01:31:04;21.60;83.30
6752;DHT22;3413;47.680;9.166;2023-09-19T01:36:11;21.50;83.20
6752;DHT22;3413;47.680;9.166;2023-09-19T01:41:19;21.40;83.20
6752;DHT22;3413;47.680;9.166;2023-09-19T01:46:24;21.40;83.20
6752;DHT22;3413;47.680;9.166;2023-09-19T02:02:17;21.50;83.00
6752;DHT22;3413;47.680;9.166;2023-09-19T02:07:19;21.50;82.90
6752;DHT22;3413;47.680;9.166;2023-09-19T02:12:21;21.40;82.80
6752;DHT22;3413;47.680;9.166;2023-09-19T02:17:25;21.30;83.10
6752;DHT22;3413;47.680;9.166;2023-09-19T02:22:30;21.20;83.00
6752;DHT22;3413;47.680;9.166;2023-09-19T02:27:32;21.20;83.00
6752;DHT22;3413;47.680;9.166;2023-09-19T02:32:34;21.20;83.10
6752;DHT22;3413;47.680;9.166;2023-09-19T02:37:40;21.10;83.10
6752;DHT22;3413;47.680;9.166;2023-09-19T02:42:43;21.10;82.90
6752;DHT22;3413;47.680;9.166;2023-09-19T02:47:48;21.10;83.00
6752;DHT22;3413;47.680;9.166;2023-09-19T02:52:51;21.10;83.00
6752;DHT22;3413;47.680;9.166;2023-09-19T02:57:53;21.10;83.10
6752;DHT22;3413;47.680;9.166;2023-09-19T03:02:58;21.10;83.20
6752;DHT22;3413;47.680;9.166;2023-09-19T03:08:01;21.10;83.30
6752;DHT22;3413;47.680;9.166;2023-09-19T03:13:05;21.10;83.30
6752;DHT22;3413;47.680;9.166;2023-09-19T03:18:07;21.10;83.10
6752;DHT22;3413;47.680;9.166;2023-09-19T03:23:09;21.10;83.00
6752;DHT22;3413;47.680;9.166;2023-09-19T03:28:12;21.00;83.00
6752;DHT22;3413;47.680;9.166;2023-09-19T03:33:14;20.90;83.10
6752;DHT22;3413;47.680;9.166;2023-09-19T03:38:16;20.90;83.30
6752;DHT22;3413;47.680;9.166;2023-09-19T03:43:19;20.90;83.20
6752;DHT22;3413;47.680;9.166;2023-09-19T03:48:21;20.90;83.30
6752;DHT22;3413;47.680;9.166;2023-09-19T03:53:25;20.90;83.30
6752;DHT22;3413;47.680;9.166;2023-09-19T03:58:27;20.80;83.20
6752;DHT22;3413;47.680;9.166;2023-09-19T04:03:29;20.90;83.40
6752;DHT22;3413;47.680;9.166;2023-09-19T04:08:37;20.90;83.30
6752;DHT22;3413;47.680;9.166;2023-09-19T04:13:40;21.00;83.40
6752;DHT22;3413;47.680;9.166;2023-09-19T04:18:43;21.00;83.30
6752;DHT22;3413;47.680;9.166;2023-09-19T04:23:45;21.00;83.40
6752;DHT22;3413;47.680;9.166;2023-09-19T04:28:47;21.10;83.40
6752;DHT22;3413;47.680;9.166;2023-09-19T04:33:49;21.20;83.40
6752;DHT22;3413;47.680;9.166;2023-09-19T04:38:51;21.20;83.40
6752;DHT22;3413;47.680;9.166;2023-09-19T04:43:53;21.20;83.60
6752;DHT22;3413;47.680;9.166;2023-09-19T04:48:55;21.30;83.60
6752;DHT22;3413;47.680;9.166;2023-09-19T04:53:57;21.40;83.60
6752;DHT22;3413;47.680;9.166;2023-09-19T04:58:59;21.40;83.70
6752;DHT22;3413;47.680;9.166;2023-09-19T05:04:02;21.50;83.50
6752;DHT22;3413;47.680;9.166;2023-09-19T05:09:06;21.60;83.40
6752;DHT22;3413;47.680;9.166;2023-09-19T05:14:09;21.60;83.50
6752;DHT22;3413;47.680;9.166;2023-09-19T05:19:12;21.50;83.30
6752;DHT22;3413;47.680;9.166;2023-09-19T05:24:14;21.50;83.50
6752;DHT22;3413;47.680;9.166;2023-09-19T05:29:16;21.50;83.40
6752;DHT22;3413;47.680;9.166;2023-09-19T05:34:18;21.50;83.40
6752;DHT22;3413;47.680;9.166;2023-09-19T05:39:20;21.50;83.30
6752;DHT22;3413;47.680;9.166;2023-09-19T05:44:22;21.50;83.40
6752;DHT22;3413;47.680;9.166;2023-09-19T05:49:24;21.40;83.50
6752;DHT22;3413;47.680;9.166;2023-09-19T05:54:26;21.30;83.60
6752;DHT22;3413;47.680;9.166;2023-09-19T05:59:29;21.30;83.40
6752;DHT22;3413;47.680;9.166;2023-09-19T06:04:31;21.40;83.30
6752;DHT22;3413;47.680;9.166;2023-09-19T06:09:33;21.40;83.20
6752;DHT22;3413;47.680;9.166;2023-09-19T06:14:35;21.50;83.20
6752;DHT22;3413;47.680;9.166;2023-09-19T06:19:37;21.60;83.20
6752;DHT22;3413;47.680;9.166;2023-09-19T06:24:39;21.50;83.30
6752;DHT22;3413;47.680;9.166;2023-09-19T06:29:41;21.40;83.00
6752;DHT22;3413;47.680;9.166;2023-09-19T06:34:43;21.30;83.30
6752;DHT22;3413;47.680;9.166;2023-09-19T06:39:47;21.30;83.30
6752;DHT22;3413;47.680;9.166;2023-09-19T06:44:51;21.20;83.30
6752;DHT22;3413;47.680;9.166;2023-09-19T06:49:53;21.20;83.70
6752;DHT22;3413;47.680;9.166;2023-09-19T06:54:55;21.20;83.70
6752;DHT22;3413;47.680;9.166;2023-09-19T06:59:57;21.30;83.60
6752;DHT22;3413;47.680;9.166;2023-09-19T07:05:02;21.40;83.50
6752;DHT22;3413;47.680;9.166;2023-09-19T07:10:04;21.30;83.60
6752;DHT22;3413;47.680;9.166;2023-09-19T07:15:12;21.40;84.00
6752;DHT22;3413;47.680;9.166;2023-09-19T07:20:15;21.50;84.00
6752;DHT22;3413;47.680;9.166;2023-09-19T07:25:18;21.50;83.90
6752;DHT22;3413;47.680;9.166;2023-09-19T07:30:20;21.60;84.00
6752;DHT22;3413;47.680;9.166;2023-09-19T07:35:22;21.70;83.90
6752;DHT22;3413;47.680;9.166;2023-09-19T07:40:24;21.70;83.90
6752;DHT22;3413;47.680;9.166;2023-09-19T07:45:29;21.80;84.00
6752;DHT22;3413;47.680;9.166;2023-09-19T07:50:34;21.90;83.90
6752;DHT22;3413;47.680;9.166;2023-09-19T07:55:39;21.90;84.10
6752;DHT22;3413;47.680;9.166;2023-09-19T08:00:42;22.00;84.40
6752;DHT22;3413;47.680;9.166;2023-09-19T08:05:44;22.20;84.20
6752;DHT22;3413;47.680;9.166;2023-09-19T08:10:55;22.40;84.10
6752;DHT22;3413;47.680;9.166;2023-09-19T08:15:58;22.60;84.30
6752;DHT22;3413;47.680;9.166;2023-09-19T08:21:00;22.80;84.50
6752;DHT22;3413;47.680;9.166;2023-09-19T08:26:03;22.80;84.20
6752;DHT22;3413;47.680;9.166;2023-09-19T08:31:09;22.80;84.30
6752;DHT22;3413;47.680;9.166;2023-09-19T08:36:12;22.90;84.10
6752;DHT22;3413;47.680;9.166;2023-09-19T08:41:17;22.90;84.30
6752;DHT22;3413;47.680;9.166;2023-09-19T08:46:20;23.00;83.90
6752;DHT22;3413;47.680;9.166;2023-09-19T08:51:30;22.90;83.80
6752;DHT22;3413;47.680;9.166;2023-09-19T08:56:35;23.10;84.30
6752;DHT22;3413;47.680;9.166;2023-09-19T09:01:42;23.20;84.30
6752;DHT22;3413;47.680;9.166;2023-09-19T09:06:44;23.30;84.00
6752;DHT22;3413;47.680;9.166;2023-09-19T09:11:50;23.20;84.00
6752;DHT22;3413;47.680;9.166;2023-09-19T09:16:55;23.40;83.90
6752;DHT22;3413;47.680;9.166;2023-09-19T09:22:10;23.50;84.90
6752;DHT22;3413;47.680;9.166;2023-09-19T09:27:13;23.80;84.40
6752;DHT22;3413;47.680;9.166;2023-09-19T09:32:30;23.90;84.40
6752;DHT22;3413;47.680;9.166;2023-09-19T09:37:35;23.90;84.00
6752;DHT22;3413;47.680;9.166;2023-09-19T09:42:40;23.90;84.10
6752;DHT22;3413;47.680;9.166;2023-09-19T09:47:47;24.00;84.00
6752;DHT22;3413;47.680;9.166;2023-09-19T09:52:59;24.10;84.00
6752;DHT22;3413;47.680;9.166;2023-09-19T09:58:18;24.10;83.90
6752;DHT22;3413;47.680;9.166;2023-09-19T10:03:20;24.30;83.40
6752;DHT22;3413;47.680;9.166;2023-09-19T10:08:27;24.20;83.30
6752;DHT22;3413;47.680;9.166;2023-09-19T10:13:36;24.00;83.40
6752;DHT22;3413;47.680;9.166;2023-09-19T10:18:41;24.00;83.30
6752;DHT22;3413;47.680;9.166;2023-09-19T10:23:45;23.90;83.10
6752;DHT22;3413;47.680;9.166;2023-09-19T10:28:49;23.80;83.00
6752;DHT22;3413;47.680;9.166;2023-09-19T10:33:53;23.70;82.80
6752;DHT22;3413;47.680;9.166;2023-09-19T10:38:58;23.50;82.90
6752;DHT22;3413;47.680;9.166;2023-09-19T10:44:04;23.50;83.00
6752;DHT22;3413;47.680;9.166;2023-09-19T10:49:11;23.70;83.00
6752;DHT22;3413;47.680;9.166;2023-09-19T10:54:15;23.80;83.10
6752;DHT22;3413;47.680;9.166;2023-09-19T10:59:20;23.90;83.10
6752;DHT22;3413;47.680;9.166;2023-09-19T11:04:33;24.10;83.40
6752;DHT22;3413;47.680;9.166;2023-09-19T11:09:53;24.20;83.40
6752;DHT22;3413;47.680;9.166;2023-09-19T11:14:59;24.40;83.50
6752;DHT22;3413;47.680;9.166;2023-09-19T11:30:41;24.40;83.60
6752;DHT22;3413;47.680;9.166;2023-09-19T11:36:06;24.70;83.80
6752;DHT22;3413;47.680;9.166;2023-09-19T11:46:33;25.30;83.60
6752;DHT22;3413;47.680;9.166;2023-09-19T11:51:43;25.40;83.40
6752;DHT22;3413;47.680;9.166;2023-09-19T11:56:51;25.40;82.90
6752;DHT22;3413;47.680;9.166;2023-09-19T12:01:58;25.30;82.90
6752;DHT22;3413;47.680;9.166;2023-09-19T12:07:00;25.40;83.20
6752;DHT22;3413;47.680;9.166;2023-09-19T12:12:02;25.50;83.40
6752;DHT22;3413;47.680;9.166;2023-09-19T12:17:04;25.70;83.50
6752;DHT22;3413;47.680;9.166;2023-09-19T12:22:06;25.90;83.40
6752;DHT22;3413;47.680;9.166;2023-09-19T12:27:10;25.70;83.20
6752;DHT22;3413;47.680;9.166;2023-09-19T12:32:13;25.60;83.30
6752;DHT22;3413;47.680;9.166;2023-09-19T12:37:19;25.70;83.60
6752;DHT22;3413;47.680;9.166;2023-09-19T12:42:26;25.90;83.30
6752;DHT22;3413;47.680;9.166;2023-09-19T12:47:33;26.20;83.20
6752;DHT22;3413;47.680;9.166;2023-09-19T12:52:37;26.40;83.30
6752;DHT22;3413;47.680;9.166;2023-09-19T12:57:40;26.60;83.00
6752;DHT22;3413;47.680;9.166;2023-09-19T13:08:25;26.70;82.50
6752;DHT22;3413;47.680;9.166;2023-09-19T13:13:31;26.70;82.80
6752;DHT22;3413;47.680;9.166;2023-09-19T13:18:45;26.90;82.60
6752;DHT22;3413;47.680;9.166;2023-09-19T13:23:49;27.10;82.70
6752;DHT22;3413;47.680;9.166;2023-09-19T13:28:50;27.20;82.60
6752;DHT22;3413;47.680;9.166;2023-09-19T13:33:53;27.30;82.80
6752;DHT22;3413;47.680;9.166;2023-09-19T13:38:55;27.40;82.80
6752;DHT22;3413;47.680;9.166;2023-09-19T13:43:57;27.60;82.50
6752;DHT22;3413;47.680;9.166;2023-09-19T13:48:59;27.50;82.10
6752;DHT22;3413;47.680;9.166;2023-09-19T13:54:01;27.50;82.30
6752;DHT22;3413;47.680;9.166;2023-09-19T13:59:03;27.60;82.20
6752;DHT22;3413;47.680;9.166;2023-09-19T14:04:05;27.60;82.00
6752;DHT22;3413;47.680;9.166;2023-09-19T14:09:07;27.80;82.50
6752;DHT22;3413;47.680;9.166;2023-09-19T14:14:10;27.80;82.00
6752;DHT22;3413;47.680;9.166;2023-09-19T14:19:12;28.00;82.00
6752;DHT22;3413;47.680;9.166;2023-09-19T14:24:18;28.20;81.60
6752;DHT22;3413;47.680;9.166;2023-09-19T14:29:20;28.00;81.50
6752;DHT22;3413;47.680;9.166;2023-09-19T14:34:22;28.10;81.40
6752;DHT22;3413;47.680;9.166;2023-09-19T14:39:24;28.20;81.40
6752;DHT22;3413;47.680;9.166;2023-09-19T14:44:26;28.30;81.70
6752;DHT22;3413;47.680;9.166;2023-09-19T14:49:29;28.40;81.80
6752;DHT22;3413;47.680;9.166;2023-09-19T14:54:31;28.50;81.40
6752;DHT22;3413;47.680;9.166;2023-09-19T14:59:34;28.60;81.20
6752;DHT22;3413;47.680;9.166;2023-09-19T15:04:39;28.60;80.90
6752;DHT22;3413;47.680;9.166;2023-09-19T15:09:43;28.50;80.80
6752;DHT22;3413;47.680;9.166;2023-09-19T15:14:45;28.50;80.90
6752;DHT22;3413;47.680;9.166;2023-09-19T15:19:49;28.50;80.70
6752;DHT22;3413;47.680;9.166;2023-09-19T15:24:51;28.50;80.40
6752;DHT22;3413;47.680;9.166;2023-09-19T15:29:53;28.50;80.30
6752;DHT22;3413;47.680;9.166;2023-09-19T15:34:55;28.40;80.20
6752;DHT22;3413;47.680;9.166;2023-09-19T15:39:57;28.40;79.80
6752;DHT22;3413;47.680;9.166;2023-09-19T15:44:59;28.30;79.90
6752;DHT22;3413;47.680;9.166;2023-09-19T15:50:01;28.20;79.80
6752;DHT22;3413;47.680;9.166;2023-09-19T15:55:05;28.20;79.80
6752;DHT22;3413;47.680;9.166;2023-09-19T16:00:08;28.10;79.80
6752;DHT22;3413;47.680;9.166;2023-09-19T16:05:12;28.00;79.90
6752;DHT22;3413;47.680;9.166;2023-09-19T16:10:14;28.10;79.80
6752;DHT22;3413;47.680;9.166;2023-09-19T16:15:17;28.20;79.80
6752;DHT22;3413;47.680;9.166;2023-09-19T16:20:20;28.20;79.60
6752;DHT22;3413;47.680;9.166;2023-09-19T16:25:24;28.00;79.70
6752;DHT22;3413;47.680;9.166;2023-09-19T16:30:27;28.00;79.40
6752;DHT22;3413;47.680;9.166;2023-09-19T16:35:30;27.90;79.20
6752;DHT22;3413;47.680;9.166;2023-09-19T16:40:32;27.80;79.20
6752;DHT22;3413;47.680;9.166;2023-09-19T16:45:34;27.90;79.10
6752;DHT22;3413;47.680;9.166;2023-09-19T16:50:36;28.00;79.10
6752;DHT22;3413;47.680;9.166;2023-09-19T16:55:39;28.10;79.20
6752;DHT22;3413;47.680;9.166;2023-09-19T17:00:43;28.30;79.10
6752;DHT22;3413;47.680;9.166;2023-09-19T17:05:47;28.30;79.00
6752;DHT22;3413;47.680;9.166;2023-09-19T17:10:50;28.20;78.60
6752;DHT22;3413;47.680;9.166;2023-09-19T17:16:20;28.20;78.60
6752;DHT22;3413;47.680;9.166;2023-09-19T17:21:25;28.20;78.40
6752;DHT22;3413;47.680;9.166;2023-09-19T17:26:28;28.00;78.30
6752;DHT22;3413;47.680;9.166;2023-09-19T17:31:31;28.00;78.30
6752;DHT22;3413;47.680;9.166;2023-09-19T17:36:33;27.90;78.30
6752;DHT22;3413;47.680;9.166;2023-09-19T17:41:36;27.90;78.20
6752;DHT22;3413;47.680;9.166;2023-09-19T17:46:38;27.80;78.20
6752;DHT22;3413;47.680;9.166;2023-09-19T17:51:40;27.70;78.20
6752;DHT22;3413;47.680;9.166;2023-09-19T17:56:42;27.50;78.20
6752;DHT22;3413;47.680;9.166;2023-09-19T18:01:44;27.20;78.30
6752;DHT22;3413;47.680;9.166;2023-09-19T18:06:47;27.00;79.10
6752;DHT22;3413;47.680;9.166;2023-09-19T18:11:50;26.80;78.30
6752;DHT22;3413;47.680;9.166;2023-09-19T18:16:52;26.50;78.30
6752;DHT22;3413;47.680;9.166;2023-09-19T18:21:57;26.30;78.40
6752;DHT22;3413;47.680;9.166;2023-09-19T18:27:03;26.00;78.50
6752;DHT22;3413;47.680;9.166;2023-09-19T18:32:05;25.70;78.50
6752;DHT22;3413;47.680;9.166;2023-09-19T18:37:09;25.50;78.50
6752;DHT22;3413;47.680;9.166;2023-09-19T18:42:12;25.40;78.50
6752;DHT22;3413;47.680;9.166;2023-09-19T18:47:14;25.30;78.40
6752;DHT22;3413;47.680;9.166;2023-09-19T18:52:16;25.30;78.40
6752;DHT22;3413;47.680;9.166;2023-09-19T18:57:18;25.10;78.20
6752;DHT22;3413;47.680;9.166;2023-09-19T19:02:20;24.90;78.30
6752;DHT22;3413;47.680;9.166;2023-09-19T19:07:25;24.60;78.20
6752;DHT22;3413;47.680;9.166;2023-09-19T19:12:27;24.50;78.30
6752;DHT22;3413;47.680;9.166;2023-09-19T19:17:29;24.40;78.20
6752;DHT22;3413;47.680;9.166;2023-09-19T19:22:34;24.30;78.20
6752;DHT22;3413;47.680;9.166;2023-09-19T19:27:38;24.10;78.10
6752;DHT22;3413;47.680;9.166;2023-09-19T19:32:40;23.90;78.10
6752;DHT22;3413;47.680;9.166;2023-09-19T19:37:43;23.80;78.10
6752;DHT22;3413;47.680;9.166;2023-09-19T19:42:45;23.60;78.00
6752;DHT22;3413;47.680;9.166;2023-09-19T19:47:47;23.50;78.00
6752;DHT22;3413;47.680;9.166;2023-09-19T19:52:52;23.50;78.10
6752;DHT22;3413;47.680;9.166;2023-09-19T19:58:01;23.40;78.00
6752;DHT22;3413;47.680;9.166;2023-09-19T20:03:03;23.30;78.00
6752;DHT22;3413;47.680;9.166;2023-09-19T20:08:06;23.20;78.00
6752;DHT22;3413;47.680;9.166;2023-09-19T20:13:08;23.00;78.00
6752;DHT22;3413;47.680;9.166;2023-09-19T20:18:12;22.80;78.00
6752;DHT22;3413;47.680;9.166;2023-09-19T20:23:15;22.80;78.00
6752;DHT22;3413;47.680;9.166;2023-09-19T20:28:18;22.70;78.00
6752;DHT22;3413;47.680;9.166;2023-09-19T20:33:23;22.70;78.10
6752;DHT22;3413;47.680;9.166;2023-09-19T20:38:26;22.60;78.00
6752;DHT22;3413;47.680;9.166;2023-09-19T20:43:32;22.60;78.10
6752;DHT22;3413;47.680;9.166;2023-09-19T20:48:38;22.50;78.00
6752;DHT22;3413;47.680;9.166;2023-09-19T20:53:45;22.40;78.00
6752;DHT22;3413;47.680;9.166;2023-09-19T20:58:48;22.40;78.10
6752;DHT22;3413;47.680;9.166;2023-09-19T21:03:50;22.40;78.00
6752;DHT22;3413;47.680;9.166;2023-09-19T21:08:52;22.40;78.00
6752;DHT22;3413;47.680;9.166;2023-09-19T21:13:54;22.30;77.90
6752;DHT22;3413;47.680;9.166;2023-09-19T21:18:57;22.20;77.90
6752;DHT22;3413;47.680;9.166;2023-09-19T21:24:02;22.10;77.90
6752;DHT22;3413;47.680;9.166;2023-09-19T21:29:05;22.00;78.00
6752;DHT22;3413;47.680;9.166;2023-09-19T21:34:08;21.90;77.90
6752;DHT22;3413;47.680;9.166;2023-09-19T21:39:11;21.80;78.00
6752;DHT22;3413;47.680;9.166;2023-09-19T21:44:13;21.80;78.10
6752;DHT22;3413;47.680;9.166;2023-09-19T21:49:15;21.70;78.10
6752;DHT22;3413;47.680;9.166;2023-09-19T21:54:18;21.60;78.30
6752;DHT22;3413;47.680;9.166;2023-09-19T21:59:20;21.50;78.10
6752;DHT22;3413;47.680;9.166;2023-09-19T22:04:24;21.50;78.10
6752;DHT22;3413;47.680;9.166;2023-09-19T22:09:26;21.50;78.10
6752;DHT22;3413;47.680;9.166;2023-09-19T22:14:28;21.40;78.00
6752;DHT22;3413;47.680;9.166;2023-09-19T22:19:31;21.40;78.10
6752;DHT22;3413;47.680;9.166;2023-09-19T22:24:33;21.30;78.00
6752;DHT22;3413;47.680;9.166;2023-09-19T22:29:35;21.30;78.00
6752;DHT22;3413;47.680;9.166;2023-09-19T22:34:37;21.20;77.90
6752;DHT22;3413;47.680;9.166;2023-09-19T22:39:39;21.10;77.90
6752;DHT22;3413;47.680;9.166;2023-09-19T22:44:41;20.90;77.90
6752;DHT22;3413;47.680;9.166;2023-09-19T22:49:43;20.90;78.00
6752;DHT22;3413;47.680;9.166;2023-09-19T22:54:44;20.80;78.00
6752;DHT22;3413;47.680;9.166;2023-09-19T22:59:48;20.70;78.00
6752;DHT22;3413;47.680;9.166;2023-09-19T23:04:54;20.70;78.70
6752;DHT22;3413;47.680;9.166;2023-09-19T23:10:02;20.60;78.00
6752;DHT22;3413;47.680;9.166;2023-09-19T23:15:08;20.60;78.10
6752;DHT22;3413;47.680;9.166;2023-09-19T23:20:13;20.60;78.10
6752;DHT22;3413;47.680;9.166;2023-09-19T23:25:26;20.60;78.70
6752;DHT22;3413;47.680;9.166;2023-09-19T23:30:29;20.50;77.90
6752;DHT22;3413;47.680;9.166;2023-09-19T23:35:34;20.40;78.00
6752;DHT22;3413;47.680;9.166;2023-09-19T23:40:36;20.40;78.10
6752;DHT22;3413;47.680;9.166;2023-09-19T23:45:40;20.30;78.10
6752;DHT22;3413;47.680;9.166;2023-09-19T23:50:43;20.30;78.20
6752;DHT22;3413;47.680;9.166;2023-09-19T23:55:47;20.30;78.10
